createdAt,value
2018-09-20T00:00:00.389Z,1012.75
2018-09-20T00:01:00.378Z,1012.77
2018-09-20T00:02:00.361Z,1012.73
2018-09-20T00:03:00.347Z,1012.72
2018-09-20T00:04:00.331Z,1012.73
2018-09-20T00:05:00.315Z,1012.71
2018-09-20T00:06:00.311Z,1012.71
2018-09-20T00:07:00.293Z,1012.69
2018-09-20T00:08:00.276Z,1012.71
2018-09-20T00:09:00.259Z,1012.71
2018-09-20T00:10:00.243Z,1012.72
2018-09-20T00:11:00.232Z,1012.72
2018-09-20T00:12:00.218Z,1012.73
2018-09-20T00:13:00.202Z,1012.72
2018-09-20T00:14:00.190Z,1012.75
2018-09-20T00:15:00.178Z,1012.73
2018-09-20T00:16:00.161Z,1012.70
2018-09-20T00:17:00.150Z,1012.70
2018-09-20T00:18:00.135Z,1012.69
2018-09-20T00:19:00.118Z,1012.66
2018-09-20T00:20:00.106Z,1012.72
2018-09-20T00:21:00.085Z,1012.69
2018-09-20T00:22:00.073Z,1012.67
2018-09-20T00:23:00.056Z,1012.69
2018-09-20T00:24:00.117Z,1012.70
2018-09-20T00:25:00.032Z,1012.70
2018-09-20T00:26:00.015Z,1012.68
2018-09-20T00:27:00.002Z,1012.71
2018-09-20T00:27:59.992Z,1012.70
2018-09-20T00:28:59.974Z,1012.73
2018-09-20T00:29:59.957Z,1012.75
2018-09-20T00:30:59.944Z,1012.71
2018-09-20T00:31:59.928Z,1012.71
2018-09-20T00:32:59.917Z,1012.72
2018-09-20T00:33:59.907Z,1012.74
2018-09-20T00:34:59.885Z,1012.70
2018-09-20T00:35:59.866Z,1012.71
2018-09-20T00:36:59.854Z,1012.72
2018-09-20T00:37:59.842Z,1012.75
2018-09-20T00:38:59.829Z,1012.74
2018-09-20T00:39:59.824Z,1012.72
2018-09-20T00:40:59.798Z,1012.73
2018-09-20T00:41:59.782Z,1012.70
2018-09-20T00:42:59.767Z,1012.70
2018-09-20T00:43:59.757Z,1012.70
2018-09-20T00:44:59.744Z,1012.70
2018-09-20T00:45:59.727Z,1012.67
2018-09-20T00:46:59.713Z,1012.68
2018-09-20T00:47:59.694Z,1012.70
2018-09-20T00:48:59.678Z,1012.73
2018-09-20T00:49:59.671Z,1012.69
2018-09-20T00:50:59.646Z,1012.71
2018-09-20T00:51:59.638Z,1012.73
2018-09-20T00:52:59.628Z,1012.70
2018-09-20T00:53:59.608Z,1012.68
2018-09-20T00:54:59.592Z,1012.69
2018-09-20T00:55:59.578Z,1012.72
2018-09-20T00:56:59.560Z,1012.71
2018-09-20T00:57:59.549Z,1012.72
2018-09-20T00:58:59.533Z,1012.73
2018-09-20T00:59:59.523Z,1012.71
2018-09-20T01:00:59.504Z,1012.72
2018-09-20T01:01:59.490Z,1012.76
2018-09-20T01:02:59.476Z,1012.72
2018-09-20T01:03:59.458Z,1012.75
2018-09-20T01:04:59.448Z,1012.78
2018-09-20T01:05:59.430Z,1012.74
2018-09-20T01:06:59.416Z,1012.74
2018-09-20T01:07:59.406Z,1012.72
2018-09-20T01:08:59.386Z,1012.75
2018-09-20T01:09:59.377Z,1012.76
2018-09-20T01:10:59.358Z,1012.75
2018-09-20T01:11:59.345Z,1012.76
2018-09-20T01:12:59.329Z,1012.78
2018-09-20T01:13:59.320Z,1012.76
2018-09-20T01:14:59.298Z,1012.78
2018-09-20T01:15:59.284Z,1012.77
2018-09-20T01:16:59.269Z,1012.79
2018-09-20T01:17:59.254Z,1012.78
2018-09-20T01:18:59.240Z,1012.81
2018-09-20T01:19:59.224Z,1012.84
2018-09-20T01:20:59.211Z,1012.83
2018-09-20T01:21:59.194Z,1012.85
2018-09-20T01:22:59.178Z,1012.83
2018-09-20T01:23:59.166Z,1012.83
2018-09-20T01:24:59.158Z,1012.79
2018-09-20T01:25:59.134Z,1012.82
2018-09-20T01:26:59.126Z,1012.87
2018-09-20T01:27:59.110Z,1012.82
2018-09-20T01:28:59.092Z,1012.85
2018-09-20T01:29:59.080Z,1012.88
2018-09-20T01:30:59.065Z,1012.89
2018-09-20T01:31:59.054Z,1012.89
2018-09-20T01:32:59.033Z,1012.88
2018-09-20T01:33:59.018Z,1012.90
2018-09-20T01:34:59.000Z,1012.92
2018-09-20T01:35:58.988Z,1012.91
2018-09-20T01:36:58.974Z,1012.88
2018-09-20T01:37:58.961Z,1012.98
2018-09-20T01:38:58.942Z,1012.96
2018-09-20T01:39:58.932Z,1012.95
2018-09-20T01:40:58.917Z,1012.96
2018-09-20T01:41:58.904Z,1012.98
2018-09-20T01:42:58.882Z,1013.00
2018-09-20T01:43:58.869Z,1013.01
2018-09-20T01:44:58.855Z,1013.03
2018-09-20T01:46:41.372Z,1013.02
2018-09-20T01:47:41.355Z,1013.02
2018-09-20T01:48:41.340Z,1013.04
2018-09-20T01:49:41.327Z,1013.07
2018-09-20T01:50:41.316Z,1013.08
2018-09-20T01:51:41.293Z,1013.05
2018-09-20T01:52:41.278Z,1013.09
2018-09-20T01:53:41.266Z,1013.07
2018-09-20T01:54:41.249Z,1013.06
2018-09-20T01:55:41.234Z,1013.16
2018-09-20T01:56:41.220Z,1013.13
2018-09-20T01:57:41.207Z,1013.12
2018-09-20T01:58:41.186Z,1013.11
2018-09-20T01:59:41.174Z,1013.13
2018-09-20T02:00:41.160Z,1013.16
2018-09-20T02:01:41.144Z,1013.14
2018-09-20T02:02:41.130Z,1013.15
2018-09-20T02:03:41.116Z,1013.16
2018-09-20T02:04:41.100Z,1013.19
2018-09-20T02:05:41.090Z,1013.19
2018-09-20T02:06:41.071Z,1013.21
2018-09-20T02:07:41.054Z,1013.20
2018-09-20T02:08:41.037Z,1013.25
2018-09-20T02:09:41.030Z,1013.21
2018-09-20T02:10:41.006Z,1013.26
2018-09-20T02:12:28.536Z,1013.26
2018-09-20T02:13:28.563Z,1013.29
2018-09-20T02:14:28.498Z,1013.29
2018-09-20T02:15:28.486Z,1013.32
2018-09-20T02:16:28.463Z,1013.27
2018-09-20T02:17:28.454Z,1013.34
2018-09-20T02:18:28.435Z,1013.32
2018-09-20T02:19:28.421Z,1013.33
2018-09-20T02:20:28.408Z,1013.38
2018-09-20T02:21:28.391Z,1013.35
2018-09-20T02:22:28.368Z,1013.33
2018-09-20T02:23:28.357Z,1013.34
2018-09-20T02:24:28.337Z,1013.35
2018-09-20T02:25:28.321Z,1013.35
2018-09-20T02:26:28.317Z,1013.36
2018-09-20T02:27:28.292Z,1013.41
2018-09-20T02:28:28.271Z,1013.39
2018-09-20T02:29:28.258Z,1013.36
2018-09-20T02:30:28.244Z,1013.40
2018-09-20T02:31:28.224Z,1013.39
2018-09-20T02:32:28.210Z,1013.43
2018-09-20T02:33:28.192Z,1013.40
2018-09-20T02:34:28.176Z,1013.41
2018-09-20T02:35:28.156Z,1013.43
2018-09-20T02:36:28.142Z,1013.43
2018-09-20T02:37:28.124Z,1013.43
2018-09-20T02:38:28.106Z,1013.41
2018-09-20T02:39:28.090Z,1013.38
2018-09-20T02:40:28.073Z,1013.42
2018-09-20T02:41:28.058Z,1013.42
2018-09-20T02:42:28.045Z,1013.38
2018-09-20T02:43:28.024Z,1013.37
2018-09-20T02:44:28.007Z,1013.40
2018-09-20T02:45:28.005Z,1013.42
2018-09-20T02:46:27.968Z,1013.39
2018-09-20T02:47:27.950Z,1013.42
2018-09-20T02:48:27.940Z,1013.41
2018-09-20T02:49:27.920Z,1013.42
2018-09-20T02:50:27.906Z,1013.42
2018-09-20T02:51:27.888Z,1013.47
2018-09-20T02:52:27.866Z,1013.46
2018-09-20T02:53:27.848Z,1013.46
2018-09-20T02:54:27.836Z,1013.42
2018-09-20T02:55:27.814Z,1013.48
2018-09-20T02:56:27.800Z,1013.49
2018-09-20T02:57:27.782Z,1013.49
2018-09-20T02:58:27.764Z,1013.53
2018-09-20T02:59:27.748Z,1013.54
2018-09-20T03:00:27.732Z,1013.49
2018-09-20T03:01:27.719Z,1013.50
2018-09-20T03:02:27.695Z,1013.52
2018-09-20T03:03:27.676Z,1013.54
2018-09-20T03:04:27.657Z,1013.56
2018-09-20T03:05:27.644Z,1013.54
2018-09-20T03:06:27.624Z,1013.58
2018-09-20T03:07:27.610Z,1013.57
2018-09-20T03:08:27.591Z,1013.55
2018-09-20T03:09:27.573Z,1013.53
2018-09-20T03:10:27.557Z,1013.53
2018-09-20T03:11:27.543Z,1013.54
2018-09-20T03:12:27.521Z,1013.57
2018-09-20T03:13:27.505Z,1013.58
2018-09-20T03:14:27.488Z,1013.56
2018-09-20T03:15:27.477Z,1013.51
2018-09-20T03:16:27.455Z,1013.55
2018-09-20T03:17:27.439Z,1013.53
2018-09-20T03:18:27.417Z,1013.50
2018-09-20T03:19:27.402Z,1013.52
2018-09-20T03:20:27.380Z,1013.52
2018-09-20T03:21:27.369Z,1013.51
2018-09-20T03:22:27.343Z,1013.50
2018-09-20T03:23:27.326Z,1013.51
2018-09-20T03:24:27.310Z,1013.49
2018-09-20T03:25:27.294Z,1013.49
2018-09-20T03:26:27.275Z,1013.50
2018-09-20T03:27:27.256Z,1013.49
2018-09-20T03:28:27.241Z,1013.46
2018-09-20T03:29:27.226Z,1013.47
2018-09-20T03:30:27.317Z,1013.44
2018-09-20T03:31:27.190Z,1013.44
2018-09-20T03:32:27.164Z,1013.48
2018-09-20T03:33:27.153Z,1013.49
2018-09-20T03:34:27.140Z,1013.52
2018-09-20T03:35:27.118Z,1013.52
2018-09-20T03:36:27.095Z,1013.52
2018-09-20T03:37:27.082Z,1013.53
2018-09-20T03:38:27.067Z,1013.56
2018-09-20T03:39:27.047Z,1013.52
2018-09-20T03:40:27.031Z,1013.54
2018-09-20T03:41:27.011Z,1013.56
2018-09-20T03:42:26.995Z,1013.57
2018-09-20T03:43:26.982Z,1013.59
2018-09-20T03:44:26.955Z,1013.62
2018-09-20T03:45:26.941Z,1013.64
2018-09-20T03:46:26.928Z,1013.57
2018-09-20T03:47:26.909Z,1013.64
2018-09-20T03:48:26.889Z,1013.63
2018-09-20T03:49:26.872Z,1013.66
2018-09-20T03:50:26.851Z,1013.64
2018-09-20T03:51:26.833Z,1013.69
2018-09-20T03:52:26.811Z,1013.70
2018-09-20T03:53:26.793Z,1013.65
2018-09-20T03:54:26.777Z,1013.68
2018-09-20T03:55:26.761Z,1013.67
2018-09-20T03:56:26.745Z,1013.67
2018-09-20T03:57:26.727Z,1013.66
2018-09-20T03:58:26.709Z,1013.67
2018-09-20T03:59:26.687Z,1013.63
2018-09-20T04:00:26.668Z,1013.59
2018-09-20T04:01:26.655Z,1013.58
2018-09-20T04:02:26.631Z,1013.57
2018-09-20T04:03:26.615Z,1013.59
2018-09-20T04:04:26.597Z,1013.59
2018-09-20T04:05:26.581Z,1013.57
2018-09-20T04:06:26.563Z,1013.60
2018-09-20T04:07:26.545Z,1013.56
2018-09-20T04:08:26.525Z,1013.59
2018-09-20T04:09:26.511Z,1013.53
2018-09-20T04:10:26.495Z,1013.54
2018-09-20T04:11:26.479Z,1013.55
2018-09-20T04:12:26.454Z,1013.58
2018-09-20T04:13:26.435Z,1013.57
2018-09-20T04:14:26.416Z,1013.60
2018-09-20T04:15:26.401Z,1013.63
2018-09-20T04:16:26.384Z,1013.64
2018-09-20T04:17:26.371Z,1013.65
2018-09-20T04:18:26.347Z,1013.64
2018-09-20T04:19:26.326Z,1013.64
2018-09-20T04:20:26.312Z,1013.66
2018-09-20T04:21:26.283Z,1013.61
2018-09-20T04:22:26.271Z,1013.64
2018-09-20T04:23:26.255Z,1013.64
2018-09-20T04:24:26.237Z,1013.66
2018-09-20T04:25:26.219Z,1013.72
2018-09-20T04:26:26.198Z,1013.69
2018-09-20T04:27:26.182Z,1013.69
2018-09-20T04:28:26.170Z,1013.73
2018-09-20T04:29:26.152Z,1013.71
2018-09-20T04:30:26.125Z,1013.70
2018-09-20T04:31:26.109Z,1013.70
2018-09-20T04:32:26.095Z,1013.69
2018-09-20T04:33:26.069Z,1013.72
2018-09-20T04:34:26.057Z,1013.72
2018-09-20T04:35:26.037Z,1013.71
2018-09-20T04:36:26.021Z,1013.71
2018-09-20T04:37:25.998Z,1013.73
2018-09-20T04:38:25.980Z,1013.76
2018-09-20T04:39:25.959Z,1013.72
2018-09-20T04:40:25.953Z,1013.70
2018-09-20T04:41:25.928Z,1013.75
2018-09-20T04:42:25.908Z,1013.76
2018-09-20T04:43:25.898Z,1013.73
2018-09-20T04:44:25.872Z,1013.77
2018-09-20T04:45:25.854Z,1013.73
2018-09-20T04:46:25.880Z,1013.76
2018-09-20T04:47:25.815Z,1013.74
2018-09-20T04:48:25.796Z,1013.74
2018-09-20T04:49:25.791Z,1013.71
2018-09-20T04:50:25.781Z,1013.71
2018-09-20T04:51:25.746Z,1013.76
2018-09-20T04:52:25.725Z,1013.70
2018-09-20T04:53:25.819Z,1013.77
2018-09-20T04:54:25.689Z,1013.74
2018-09-20T04:55:25.673Z,1013.78
2018-09-20T04:56:25.651Z,1013.79
2018-09-20T04:57:25.637Z,1013.82
2018-09-20T04:58:25.616Z,1013.81
2018-09-20T04:59:25.597Z,1013.86
2018-09-20T05:00:25.578Z,1013.84
2018-09-20T05:01:25.566Z,1013.83
2018-09-20T05:02:25.545Z,1013.88
2018-09-20T05:03:25.518Z,1013.89
2018-09-20T05:04:25.508Z,1013.89
2018-09-20T05:05:25.486Z,1013.89
2018-09-20T05:06:25.469Z,1013.92
2018-09-20T05:07:25.448Z,1013.91
2018-09-20T05:08:25.778Z,1013.89
2018-09-20T05:09:25.416Z,1013.92
2018-09-20T05:10:25.392Z,1013.94
2018-09-20T05:11:25.374Z,1013.99
2018-09-20T05:12:25.359Z,1013.98
2018-09-20T05:13:25.341Z,1013.94
2018-09-20T05:14:25.323Z,1014.00
2018-09-20T05:15:25.304Z,1014.02
2018-09-20T05:16:25.284Z,1014.02
2018-09-20T05:17:25.266Z,1014.03
2018-09-20T05:18:25.248Z,1014.09
2018-09-20T05:19:25.228Z,1014.12
2018-09-20T05:20:25.208Z,1014.14
2018-09-20T05:21:25.190Z,1014.18
2018-09-20T05:22:25.170Z,1014.16
2018-09-20T05:23:25.167Z,1014.19
2018-09-20T05:24:25.135Z,1014.17
2018-09-20T05:25:25.119Z,1014.18
2018-09-20T05:26:25.102Z,1014.17
2018-09-20T05:27:25.078Z,1014.18
2018-09-20T05:28:25.066Z,1014.16
2018-09-20T05:29:25.042Z,1014.19
2018-09-20T05:30:25.020Z,1014.13
2018-09-20T05:31:25.003Z,1014.17
2018-09-20T05:32:24.987Z,1014.18
2018-09-20T05:33:25.008Z,1014.21
2018-09-20T05:34:24.947Z,1014.16
2018-09-20T05:35:24.937Z,1014.21
2018-09-20T05:36:24.909Z,1014.25
2018-09-20T05:37:24.895Z,1014.28
2018-09-20T05:38:24.873Z,1014.28
2018-09-20T05:39:24.854Z,1014.29
2018-09-20T05:40:24.845Z,1014.32
2018-09-20T05:41:24.818Z,1014.29
2018-09-20T05:42:24.799Z,1014.31
2018-09-20T05:43:24.813Z,1014.30
2018-09-20T05:44:24.763Z,1014.32
2018-09-20T05:45:24.749Z,1014.34
2018-09-20T05:46:24.727Z,1014.34
2018-09-20T05:47:24.707Z,1014.35
2018-09-20T05:48:24.689Z,1014.38
2018-09-20T05:49:24.675Z,1014.40
2018-09-20T05:50:24.656Z,1014.43
2018-09-20T05:51:24.639Z,1014.42
2018-09-20T05:52:24.615Z,1014.43
2018-09-20T05:53:24.599Z,1014.47
2018-09-20T05:54:24.582Z,1014.52
2018-09-20T05:55:24.560Z,1014.46
2018-09-20T05:56:24.541Z,1014.52
2018-09-20T05:57:24.526Z,1014.47
2018-09-20T05:58:24.510Z,1014.52
2018-09-20T05:59:24.897Z,1014.56
2018-09-20T06:00:24.473Z,1014.56
2018-09-20T06:01:24.453Z,1014.57
2018-09-20T06:02:24.432Z,1014.56
2018-09-20T06:03:24.422Z,1014.64
2018-09-20T06:04:24.402Z,1014.55
2018-09-20T06:05:24.377Z,1014.61
2018-09-20T06:06:24.365Z,1014.62
2018-09-20T06:07:24.348Z,1014.62
2018-09-20T06:08:24.327Z,1014.65
2018-09-20T06:09:24.307Z,1014.63
2018-09-20T06:10:24.285Z,1014.62
2018-09-20T06:11:24.272Z,1014.61
2018-09-20T06:12:24.247Z,1014.63
2018-09-20T06:13:24.232Z,1014.66
2018-09-20T06:14:24.217Z,1014.65
2018-09-20T06:15:24.193Z,1014.67
2018-09-20T06:16:24.181Z,1014.72
2018-09-20T06:17:24.159Z,1014.71
2018-09-20T06:18:24.144Z,1014.72
2018-09-20T06:19:24.127Z,1014.73
2018-09-20T06:20:24.110Z,1014.72
2018-09-20T06:21:24.091Z,1014.73
2018-09-20T06:22:24.069Z,1014.74
2018-09-20T06:23:24.053Z,1014.77
2018-09-20T06:24:24.043Z,1014.76
2018-09-20T06:25:24.019Z,1014.75
2018-09-20T06:26:24.001Z,1014.77
2018-09-20T06:27:23.983Z,1014.79
2018-09-20T06:28:23.961Z,1014.79
2018-09-20T06:29:23.945Z,1014.80
2018-09-20T06:30:23.935Z,1014.80
2018-09-20T06:31:23.910Z,1014.85
2018-09-20T06:32:23.892Z,1014.83
2018-09-20T06:33:23.877Z,1014.87
2018-09-20T06:34:23.857Z,1014.84
2018-09-20T06:35:23.835Z,1014.86
2018-09-20T06:36:23.819Z,1014.86
2018-09-20T06:37:23.803Z,1014.86
2018-09-20T06:38:23.797Z,1014.81
2018-09-20T06:39:23.775Z,1014.83
2018-09-20T06:40:23.749Z,1014.85
2018-09-20T06:41:23.729Z,1014.92
2018-09-20T06:42:23.713Z,1014.91
2018-09-20T06:43:23.697Z,1014.92
2018-09-20T06:44:23.684Z,1014.87
2018-09-20T06:45:23.665Z,1014.91
2018-09-20T06:46:23.643Z,1014.89
2018-09-20T06:47:23.628Z,1014.93
2018-09-20T06:48:23.609Z,1014.91
2018-09-20T06:49:23.593Z,1014.91
2018-09-20T06:50:23.617Z,1014.91
2018-09-20T06:51:23.560Z,1014.91
2018-09-20T06:52:23.539Z,1014.89
2018-09-20T06:53:23.525Z,1014.93
2018-09-20T06:54:23.518Z,1014.91
2018-09-20T06:55:23.489Z,1014.89
2018-09-20T06:56:23.477Z,1014.93
2018-09-20T06:57:23.459Z,1014.91
2018-09-20T06:58:23.432Z,1014.91
2018-09-20T06:59:23.419Z,1014.87
2018-09-20T07:00:23.410Z,1014.90
2018-09-20T07:01:23.383Z,1014.85
2018-09-20T07:02:23.369Z,1014.86
2018-09-20T07:03:23.361Z,1014.88
2018-09-20T07:04:23.336Z,1014.88
2018-09-20T07:05:23.317Z,1014.90
2018-09-20T07:06:23.305Z,1014.96
2018-09-20T07:07:23.281Z,1014.96
2018-09-20T07:08:23.267Z,1014.98
2018-09-20T07:09:23.250Z,1015.04
2018-09-20T07:10:23.233Z,1015.07
2018-09-20T07:11:23.223Z,1015.10
2018-09-20T07:12:23.200Z,1015.04
2018-09-20T07:13:23.188Z,1015.00
2018-09-20T07:14:23.167Z,1014.96
2018-09-20T07:15:23.157Z,1014.95
2018-09-20T07:16:23.130Z,1014.91
2018-09-20T07:17:23.123Z,1014.94
2018-09-20T07:18:23.106Z,1014.92
2018-09-20T07:19:23.083Z,1014.94
2018-09-20T07:20:23.066Z,1014.91
2018-09-20T07:21:23.063Z,1014.94
2018-09-20T07:22:23.037Z,1014.92
2018-09-20T07:23:23.019Z,1014.97
2018-09-20T07:24:23.009Z,1015.04
2018-09-20T07:25:23.018Z,1015.05
2018-09-20T07:26:22.972Z,1015.10
2018-09-20T07:27:22.957Z,1015.11
2018-09-20T07:28:22.939Z,1015.17
2018-09-20T07:29:22.925Z,1015.18
2018-09-20T07:30:22.908Z,1015.26
2018-09-20T07:31:22.893Z,1015.28
2018-09-20T07:32:22.877Z,1015.24
2018-09-20T07:33:22.863Z,1015.26
2018-09-20T07:34:22.848Z,1015.32
2018-09-20T07:35:22.830Z,1015.29
2018-09-20T07:36:22.813Z,1015.34
2018-09-20T07:37:22.797Z,1015.32
2018-09-20T07:38:22.783Z,1015.31
2018-09-20T07:39:22.773Z,1015.30
2018-09-20T07:40:22.759Z,1015.31
2018-09-20T07:41:22.741Z,1015.32
2018-09-20T07:42:22.728Z,1015.32
2018-09-20T07:43:22.763Z,1015.34
2018-09-20T07:44:22.694Z,1015.41
2018-09-20T07:45:22.681Z,1015.39
2018-09-20T07:46:22.673Z,1015.36
2018-09-20T07:47:22.663Z,1015.33
2018-09-20T07:48:22.639Z,1015.38
2018-09-20T07:49:22.630Z,1015.36
2018-09-20T07:50:22.615Z,1015.44
2018-09-20T07:51:22.596Z,1015.57
2018-09-20T07:52:22.585Z,1016.35
2018-09-20T07:53:22.574Z,1017.09
2018-09-20T07:54:22.563Z,1017.35
2018-09-20T07:55:22.541Z,1017.58
2018-09-20T07:56:22.533Z,1017.66
2018-09-20T07:57:22.513Z,1017.37
2018-09-20T07:58:22.497Z,1017.25
2018-09-20T07:59:22.491Z,1017.43
2018-09-20T08:00:22.475Z,1017.52
2018-09-20T08:01:22.511Z,1017.90
2018-09-20T08:02:22.445Z,1018.12
2018-09-20T08:03:22.442Z,1018.48
2018-09-20T08:04:22.424Z,1019.04
2018-09-20T08:05:22.407Z,1019.34
2018-09-20T08:06:22.397Z,1019.28
2018-09-20T08:07:22.382Z,1019.62
2018-09-20T08:08:22.373Z,1020.11
2018-09-20T08:09:22.357Z,1020.81
2018-09-20T08:10:22.345Z,1020.69
2018-09-20T08:11:22.343Z,1020.57
2018-09-20T08:12:22.328Z,1020.80
2018-09-20T08:13:22.309Z,1020.11
2018-09-20T08:14:22.298Z,1018.49
2018-09-20T08:15:22.289Z,1017.68
2018-09-20T08:16:22.276Z,1017.41
2018-09-20T08:17:22.261Z,1018.23
2018-09-20T08:18:22.255Z,1018.73
2018-09-20T08:19:22.239Z,1019.15
2018-09-20T08:20:22.231Z,1019.58
2018-09-20T08:21:22.282Z,1020.65
2018-09-20T08:22:22.209Z,1021.46
2018-09-20T08:23:22.193Z,1021.89
2018-09-20T08:24:22.189Z,1022.01
2018-09-20T08:25:22.178Z,1021.92
2018-09-20T08:26:22.164Z,1023.16
2018-09-20T08:27:22.154Z,1023.71
2018-09-20T08:28:22.143Z,1023.10
2018-09-20T08:29:22.131Z,1023.69
2018-09-20T08:30:22.121Z,1020.07
2018-09-20T08:31:22.109Z,1015.98
2018-09-20T08:32:22.112Z,1015.66
2018-09-20T08:33:22.090Z,1015.63
2018-09-20T08:34:22.077Z,1015.52
2018-09-20T08:35:22.073Z,1015.53
2018-09-20T08:36:22.059Z,1015.48
2018-09-20T08:37:22.081Z,1015.44
2018-09-20T08:38:22.172Z,1015.44
2018-09-20T08:39:22.034Z,1015.42
2018-09-20T08:40:22.017Z,1015.39
2018-09-20T08:41:22.009Z,1015.40
2018-09-20T08:42:22.067Z,1015.45
2018-09-20T08:43:21.990Z,1015.41
2018-09-20T08:44:21.981Z,1015.38
2018-09-20T08:45:21.980Z,1015.36
2018-09-20T08:46:21.961Z,1015.38
2018-09-20T08:47:21.954Z,1015.36
2018-09-20T08:48:21.946Z,1015.32
2018-09-20T08:49:21.934Z,1015.29
2018-09-20T08:50:21.926Z,1015.24
2018-09-20T08:51:21.917Z,1015.22
2018-09-20T08:52:21.902Z,1015.21
2018-09-20T08:53:21.902Z,1015.20
2018-09-20T08:54:21.885Z,1015.18
2018-09-20T08:55:21.880Z,1014.92
2018-09-20T08:56:21.868Z,1014.92
2018-09-20T08:57:21.861Z,1014.90
2018-09-20T08:58:21.849Z,1014.94
2018-09-20T08:59:21.844Z,1014.93
2018-09-20T09:00:21.830Z,1014.85
2018-09-20T09:01:21.826Z,1014.94
2018-09-20T09:02:21.810Z,1014.97
2018-09-20T09:03:21.804Z,1014.96
2018-09-20T09:04:21.820Z,1014.93
2018-09-20T09:05:21.792Z,1014.93
2018-09-20T09:06:21.775Z,1014.96
2018-09-20T09:07:21.767Z,1014.96
2018-09-20T09:08:21.759Z,1014.93
2018-09-20T09:09:21.745Z,1014.87
2018-09-20T09:10:21.746Z,1014.88
2018-09-20T09:11:21.729Z,1014.89
2018-09-20T09:12:21.718Z,1014.88
2018-09-20T09:13:21.714Z,1014.84
2018-09-20T09:14:21.743Z,1014.86
2018-09-20T09:15:21.685Z,1014.88
2018-09-20T09:16:21.681Z,1014.92
2018-09-20T09:17:21.770Z,1014.86
2018-09-20T09:18:21.662Z,1014.86
2018-09-20T09:19:21.650Z,1014.84
2018-09-20T09:20:21.638Z,1014.85
2018-09-20T09:21:21.636Z,1014.81
2018-09-20T09:22:21.623Z,1014.82
2018-09-20T09:23:21.615Z,1014.79
2018-09-20T09:24:21.612Z,1014.76
2018-09-20T09:25:21.594Z,1014.73
2018-09-20T09:26:21.582Z,1014.77
2018-09-20T09:27:21.570Z,1014.78
2018-09-20T09:28:21.560Z,1014.81
2018-09-20T09:29:21.548Z,1014.78
2018-09-20T09:30:21.541Z,1014.79
2018-09-20T09:31:21.530Z,1014.77
2018-09-20T09:32:21.523Z,1014.76
2018-09-20T09:33:21.515Z,1014.74
2018-09-20T09:34:21.503Z,1014.74
2018-09-20T09:35:21.491Z,1014.68
2018-09-20T09:36:21.480Z,1014.67
2018-09-20T09:37:21.470Z,1014.64
2018-09-20T09:38:21.462Z,1014.67
2018-09-20T09:39:21.448Z,1014.65
2018-09-20T09:40:21.444Z,1014.65
2018-09-20T09:41:21.428Z,1014.63
2018-09-20T09:42:21.424Z,1014.61
2018-09-20T09:43:21.412Z,1014.62
2018-09-20T09:44:21.399Z,1014.60
2018-09-20T09:45:21.388Z,1014.59
2018-09-20T09:46:21.378Z,1014.65
2018-09-20T09:47:21.372Z,1014.56
2018-09-20T09:48:21.357Z,1014.61
2018-09-20T09:49:21.349Z,1014.63
2018-09-20T09:50:21.336Z,1014.60
2018-09-20T09:51:21.327Z,1014.56
2018-09-20T09:52:21.316Z,1014.53
2018-09-20T09:53:21.311Z,1014.54
2018-09-20T09:54:21.313Z,1014.58
2018-09-20T09:55:21.289Z,1014.55
2018-09-20T09:56:21.282Z,1014.60
2018-09-20T09:57:21.269Z,1014.47
2018-09-20T09:58:21.254Z,1014.49
2018-09-20T09:59:21.245Z,1014.49
2018-09-20T10:00:21.240Z,1014.44
2018-09-20T10:01:21.220Z,1014.45
2018-09-20T10:02:21.266Z,1014.41
2018-09-20T10:03:21.207Z,1014.37
2018-09-20T10:04:21.196Z,1014.32
2018-09-20T10:05:21.186Z,1014.34
2018-09-20T10:06:21.174Z,1014.28
2018-09-20T10:07:21.252Z,1014.32
2018-09-20T10:08:21.205Z,1014.27
2018-09-20T10:09:21.156Z,1014.26
2018-09-20T10:10:21.136Z,1014.23
2018-09-20T10:11:21.121Z,1014.19
2018-09-20T10:12:21.110Z,1014.16
2018-09-20T10:13:21.143Z,1014.12
2018-09-20T10:14:21.091Z,1014.11
2018-09-20T10:15:21.130Z,1014.10
2018-09-20T10:16:21.068Z,1014.05
2018-09-20T10:17:21.054Z,1014.13
2018-09-20T10:18:21.044Z,1014.08
2018-09-20T10:19:21.038Z,1014.11
2018-09-20T10:20:21.023Z,1014.06
2018-09-20T10:21:21.020Z,1014.07
2018-09-20T10:22:21.001Z,1014.16
2018-09-20T10:23:20.990Z,1014.10
2018-09-20T10:24:20.992Z,1014.13
2018-09-20T10:25:20.979Z,1014.13
2018-09-20T10:26:20.957Z,1014.15
2018-09-20T10:27:20.951Z,1014.09
2018-09-20T10:28:20.935Z,1014.07
2018-09-20T10:29:20.931Z,1014.07
2018-09-20T10:30:20.916Z,1013.99
2018-09-20T10:31:20.962Z,1014.02
2018-09-20T10:32:20.901Z,1014.02
2018-09-20T10:33:20.882Z,1014.00
2018-09-20T10:34:20.877Z,1014.04
2018-09-20T10:35:20.864Z,1014.03
2018-09-20T10:36:20.854Z,1014.00
2018-09-20T10:37:20.843Z,1013.96
2018-09-20T10:38:20.833Z,1013.97
2018-09-20T10:39:20.824Z,1013.98
2018-09-20T10:40:20.811Z,1013.91
2018-09-20T10:41:20.795Z,1013.89
2018-09-20T10:42:20.790Z,1013.84
2018-09-20T10:43:20.779Z,1013.93
2018-09-20T10:44:20.769Z,1013.93
2018-09-20T10:45:20.758Z,1013.90
2018-09-20T10:46:20.753Z,1013.92
2018-09-20T10:47:20.829Z,1013.82
2018-09-20T10:48:20.727Z,1013.82
2018-09-20T10:49:20.726Z,1013.75
2018-09-20T10:50:20.707Z,1013.82
2018-09-20T10:51:20.703Z,1013.86
2018-09-20T10:52:20.683Z,1013.83
2018-09-20T10:53:20.677Z,1013.73
2018-09-20T10:54:20.663Z,1013.74
2018-09-20T10:55:20.649Z,1013.71
2018-09-20T10:56:20.641Z,1013.71
2018-09-20T10:57:20.634Z,1013.65
2018-09-20T10:58:20.622Z,1013.62
2018-09-20T10:59:20.611Z,1013.64
2018-09-20T11:00:20.604Z,1013.57
2018-09-20T11:01:20.593Z,1013.58
2018-09-20T11:02:20.579Z,1013.57
2018-09-20T11:03:20.582Z,1013.57
2018-09-20T11:04:20.559Z,1013.62
2018-09-20T11:05:20.552Z,1013.61
2018-09-20T11:06:20.545Z,1013.60
2018-09-20T11:07:20.532Z,1013.59
2018-09-20T11:08:20.521Z,1013.59
2018-09-20T11:09:20.513Z,1013.54
2018-09-20T11:10:20.500Z,1013.56
2018-09-20T11:11:20.488Z,1013.51
2018-09-20T11:12:20.483Z,1013.51
2018-09-20T11:13:20.468Z,1013.55
2018-09-20T11:14:20.457Z,1013.48
2018-09-20T11:15:20.445Z,1013.47
2018-09-20T11:16:20.436Z,1013.45
2018-09-20T11:17:20.440Z,1013.45
2018-09-20T11:18:20.416Z,1013.44
2018-09-20T11:19:20.402Z,1013.41
2018-09-20T11:20:20.396Z,1013.40
2018-09-20T11:21:20.388Z,1013.45
2018-09-20T11:22:20.377Z,1013.42
2018-09-20T11:23:20.363Z,1013.41
2018-09-20T11:24:20.354Z,1013.33
2018-09-20T11:25:20.346Z,1013.28
2018-09-20T11:26:20.333Z,1013.30
2018-09-20T11:27:20.322Z,1013.32
2018-09-20T11:28:20.310Z,1013.34
2018-09-20T11:29:20.307Z,1013.29
2018-09-20T11:30:20.290Z,1013.30
2018-09-20T11:31:20.285Z,1013.25
2018-09-20T11:32:20.320Z,1013.28
2018-09-20T11:33:20.262Z,1013.27
2018-09-20T11:34:20.253Z,1013.26
2018-09-20T11:35:20.239Z,1013.33
2018-09-20T11:36:20.286Z,1013.22
2018-09-20T11:37:20.221Z,1013.16
2018-09-20T11:38:20.210Z,1013.14
2018-09-20T11:39:20.203Z,1013.16
2018-09-20T11:40:20.194Z,1013.14
2018-09-20T11:41:20.191Z,1013.13
2018-09-20T11:42:20.173Z,1013.13
2018-09-20T11:43:20.163Z,1013.12
2018-09-20T11:44:20.158Z,1013.12
2018-09-20T11:45:20.147Z,1013.04
2018-09-20T11:46:20.141Z,1013.06
2018-09-20T11:47:20.129Z,1013.08
2018-09-20T11:48:20.120Z,1013.06
2018-09-20T11:49:20.112Z,1013.12
2018-09-20T11:50:20.112Z,1013.33
2018-09-20T11:51:20.089Z,1013.45
2018-09-20T11:52:20.077Z,1013.51
2018-09-20T11:53:20.068Z,1013.57
2018-09-20T11:54:20.061Z,1013.44
2018-09-20T11:55:20.055Z,1013.49
2018-09-20T11:56:20.046Z,1013.60
2018-09-20T11:57:20.042Z,1013.62
2018-09-20T11:58:20.030Z,1013.58
2018-09-20T11:59:20.021Z,1013.63
2018-09-20T12:00:20.015Z,1013.60
2018-09-20T12:01:20.029Z,1013.58
2018-09-20T12:02:20.000Z,1013.55
2018-09-20T12:03:20.003Z,1013.55
2018-09-20T12:04:19.985Z,1013.55
2018-09-20T12:05:19.979Z,1013.59
2018-09-20T12:06:19.971Z,1013.46